createdAt,value
2023-04-01T00:02:07.821Z,10.15
2023-04-01T00:04:56.538Z,9.84
2023-04-01T00:07:40.092Z,9.63
2023-04-01T00:10:29.747Z,9.45
2023-04-01T00:13:14.305Z,9.36
2023-04-01T00:16:03.584Z,10.13
2023-04-01T00:18:48.614Z,10.74
2023-04-01T00:21:59.378Z,10.77
2023-04-01T00:25:41.074Z,10.44
2023-04-01T00:29:32.082Z,9.92
2023-04-01T00:33:15.779Z,9.64
2023-04-01T00:37:22.553Z,10.66
2023-04-01T00:41:10.472Z,10.51
2023-04-01T00:45:16.807Z,10.00
2023-04-01T00:49:08.036Z,9.48
2023-04-01T00:53:00.952Z,9.24
2023-04-01T00:57:09.159Z,10.22
2023-04-01T01:00:36.527Z,10.10
2023-04-01T01:04:12.512Z,9.76
2023-04-01T01:08:29.029Z,9.40
2023-04-01T01:12:17.184Z,9.44
2023-04-01T01:15:57.214Z,10.45
2023-04-01T01:20:25.422Z,10.49
2023-04-01T01:24:27.491Z,10.06
2023-04-01T01:28:51.181Z,9.68
2023-04-01T01:33:10.202Z,9.68
2023-04-01T01:37:19.043Z,10.87
2023-04-01T01:40:58.753Z,10.70
2023-04-01T01:44:49.237Z,10.34
2023-04-01T01:48:56.100Z,9.91
2023-04-01T01:52:55.733Z,9.85
2023-04-01T01:56:45.647Z,10.73
2023-04-01T02:00:53.972Z,10.65
2023-04-01T02:04:28.156Z,10.24
2023-04-01T02:08:17.422Z,9.82
2023-04-01T02:11:48.740Z,9.53
2023-04-01T02:15:44.564Z,10.39
2023-04-01T02:19:41.464Z,10.33
2023-04-01T02:23:33.120Z,9.88
2023-04-01T02:27:11.114Z,9.70
2023-04-01T02:31:11.456Z,10.58
2023-04-01T02:35:02.044Z,10.47
2023-04-01T02:39:10.159Z,10.00
2023-04-01T02:43:17.193Z,9.81
2023-04-01T02:46:45.110Z,10.64
2023-04-01T02:50:20.492Z,10.43
2023-04-01T02:53:26.827Z,9.96
2023-04-01T02:56:22.293Z,9.64
2023-04-01T03:00:13.000Z,10.19
2023-04-01T03:03:46.981Z,10.41
2023-04-01T03:07:20.823Z,10.00
2023-04-01T03:11:03.968Z,9.73
2023-04-01T03:15:12.088Z,10.44
2023-04-01T03:19:20.214Z,10.18
2023-04-01T03:23:25.663Z,9.66
2023-04-01T03:27:04.997Z,9.61
2023-04-01T03:30:30.349Z,10.61
2023-04-01T03:34:38.599Z,10.70
2023-04-01T03:38:26.776Z,10.24
2023-04-01T03:42:35.114Z,9.99
2023-04-01T03:46:29.523Z,10.93
2023-04-01T03:50:37.658Z,10.85
2023-04-01T03:54:38.896Z,10.37
2023-04-01T03:58:07.836Z,10.14
2023-04-01T04:01:38.375Z,11.09
2023-04-01T04:05:29.041Z,11.15
2023-04-01T04:09:37.150Z,10.72
2023-04-01T04:13:21.872Z,10.26
2023-04-01T04:17:17.133Z,10.12
2023-04-01T04:21:25.425Z,11.30
2023-04-01T04:25:15.067Z,11.24
2023-04-01T04:28:22.129Z,10.73
2023-04-01T04:30:55.850Z,10.43
2023-04-01T04:34:09.836Z,10.17
2023-04-01T04:37:36.929Z,10.97
2023-04-01T04:40:11.845Z,11.33
2023-04-01T04:43:17.526Z,11.20
2023-04-01T04:45:52.895Z,10.88
2023-04-01T04:48:45.247Z,10.60
2023-04-01T04:51:44.096Z,10.34
2023-04-01T04:54:22.174Z,11.11
2023-04-01T04:57:22.886Z,11.66
2023-04-01T05:00:13.185Z,11.52
2023-04-01T05:03:43.383Z,11.15
2023-04-01T05:06:30.446Z,10.75
2023-04-01T05:09:37.150Z,10.51
2023-04-01T05:12:45.508Z,11.33
2023-04-01T05:16:07.714Z,11.69
2023-04-01T05:19:01.813Z,11.49
2023-04-01T05:22:19.838Z,11.19
2023-04-01T05:25:12.242Z,10.76
2023-04-01T05:28:19.535Z,10.49
2023-04-01T05:31:29.428Z,11.37
2023-04-01T05:34:47.219Z,11.91
2023-04-01T05:38:29.754Z,11.71
2023-04-01T05:41:59.353Z,11.26
2023-04-01T05:44:56.748Z,10.87
2023-04-01T05:48:42.304Z,10.71
2023-04-01T05:52:04.645Z,11.80
2023-04-01T05:55:01.510Z,12.12
2023-04-01T05:58:02.530Z,11.67
2023-04-01T06:00:42.890Z,11.29
2023-04-01T06:03:47.413Z,10.93
2023-04-01T06:06:37.730Z,10.66
2023-04-01T06:09:49.802Z,11.58
2023-04-01T06:12:41.779Z,12.08
2023-04-01T06:15:50.426Z,11.94
2023-04-01T06:19:01.335Z,11.63
2023-04-01T06:22:38.466Z,11.16
2023-04-01T06:25:53.641Z,10.89
2023-04-01T06:29:18.022Z,11.96
2023-04-01T06:33:24.033Z,12.14
2023-04-01T06:37:04.796Z,11.86
2023-04-01T06:39:59.472Z,11.58
2023-04-01T06:43:50.486Z,11.43
2023-04-01T06:47:09.712Z,12.49
2023-04-01T06:50:45.012Z,12.52
2023-04-01T06:53:51.682Z,12.06
2023-04-01T06:56:47.615Z,11.68
2023-04-01T07:00:21.736Z,11.43
2023-04-01T07:03:06.916Z,12.26
2023-04-01T07:05:43.382Z,12.57
2023-04-01T07:08:29.541Z,12.50
2023-04-01T07:11:49.370Z,12.34
2023-04-01T07:15:20.620Z,12.08
2023-04-01T07:18:55.981Z,11.94
2023-04-01T07:22:15.188Z,13.10
2023-04-01T07:25:26.399Z,13.50
2023-04-01T07:28:23.219Z,13.26
2023-04-01T07:31:17.473Z,12.93
2023-04-01T07:35:24.585Z,12.75
2023-04-01T07:39:08.768Z,12.93
2023-04-01T07:43:02.858Z,14.26
2023-04-01T07:46:04.464Z,14.29
2023-04-01T07:49:24.706Z,13.99
2023-04-01T07:52:02.728Z,13.65
2023-04-01T07:55:14.430Z,13.43
2023-04-01T07:57:58.518Z,13.32
2023-04-01T08:00:47.192Z,14.17
2023-04-01T08:04:13.464Z,14.60
2023-04-01T08:07:22.677Z,14.44
2023-04-01T08:11:11.562Z,14.07
2023-04-01T08:14:26.782Z,13.70
2023-04-01T08:17:46.771Z,13.24
2023-04-01T08:20:48.331Z,13.00
2023-04-01T08:23:24.079Z,13.81
2023-04-01T08:26:49.333Z,14.21
2023-04-01T08:29:22.408Z,14.11
2023-04-01T08:32:41.356Z,13.81
2023-04-01T08:35:32.627Z,13.35
2023-04-01T08:38:35.814Z,13.07
2023-04-01T08:41:26.895Z,12.97
2023-04-01T08:44:37.255Z,13.94
2023-04-01T08:47:35.417Z,14.57
2023-04-01T08:51:15.390Z,14.67
2023-04-01T08:54:41.327Z,14.51
2023-04-01T08:57:56.751Z,14.27
2023-04-01T09:01:21.305Z,14.15
2023-04-01T09:04:18.664Z,14.17
2023-04-01T09:07:24.108Z,14.27
2023-04-01T09:10:57.195Z,15.63
2023-04-01T09:14:36.351Z,16.03
2023-04-01T09:17:25.800Z,16.28
2023-04-01T09:20:43.870Z,16.32
2023-04-01T09:23:47.170Z,16.41
2023-04-01T09:26:37.578Z,16.51
2023-04-01T09:29:45.648Z,16.69
2023-04-01T09:33:11.727Z,16.81
2023-04-01T09:36:29.551Z,16.79
2023-04-01T09:39:35.645Z,16.57
2023-04-01T09:43:03.977Z,16.53
2023-04-01T09:45:44.293Z,16.44
2023-04-01T09:48:51.959Z,16.69
2023-04-01T09:52:03.065Z,17.33
2023-04-01T09:54:54.456Z,17.85
2023-04-01T09:57:43.204Z,18.17
2023-04-01T10:01:10.510Z,18.10
2023-04-01T10:04:28.406Z,17.70
2023-04-01T10:07:50.532Z,17.44
2023-04-01T10:10:41.055Z,17.01
2023-04-01T10:13:24.080Z,16.63
2023-04-01T10:16:33.229Z,16.34
2023-04-01T10:19:41.739Z,16.22
2023-04-01T10:22:54.197Z,16.03
2023-04-01T10:26:32.313Z,15.73
2023-04-01T10:29:58.527Z,15.39
2023-04-01T10:33:35.145Z,15.09
2023-04-01T10:36:50.592Z,14.90
2023-04-01T10:40:16.253Z,14.79
2023-04-01T10:43:46.468Z,14.76
2023-04-01T10:46:37.909Z,14.63
2023-04-01T10:49:32.241Z,14.52
2023-04-01T10:53:02.369Z,14.39
2023-04-01T10:56:57.423Z,14.27
2023-04-01T11:00:45.351Z,14.17
2023-04-01T11:03:46.218Z,14.04
2023-04-01T11:06:39.986Z,13.98
2023-04-01T11:09:44.440Z,13.94
2023-04-01T11:13:09.364Z,13.86
2023-04-01T11:16:39.119Z,13.81
2023-04-01T11:20:12.788Z,13.70
2023-04-01T11:24:02.245Z,13.64
2023-04-01T11:27:18.298Z,13.75
2023-04-01T11:30:43.552Z,14.12
2023-04-01T11:33:32.896Z,15.50
2023-04-01T11:37:04.891Z,16.44
2023-04-01T11:39:59.426Z,16.99
2023-04-01T11:43:34.474Z,17.55
2023-04-01T11:46:43.591Z,18.19
2023-04-01T11:50:09.650Z,18.59
2023-04-01T11:53:48.276Z,19.18
2023-04-01T11:56:25.659Z,19.45
2023-04-01T11:59:16.088Z,19.68
2023-04-01T12:02:00.000Z,19.49
2023-04-01T12:05:05.551Z,19.20
2023-04-01T12:08:31.295Z,19.00
2023-04-01T12:12:10.040Z,18.46
2023-04-01T12:15:01.533Z,18.04
2023-04-01T12:17:55.512Z,17.90
2023-04-01T12:20:28.212Z,17.76
2023-04-01T12:23:48.994Z,17.71
2023-04-01T12:26:38.579Z,17.60
2023-04-01T12:29:16.198Z,17.47
2023-04-01T12:32:26.219Z,17.32
2023-04-01T12:35:11.212Z,17.08
2023-04-01T12:38:09.126Z,16.95
2023-04-01T12:41:19.599Z,16.83
2023-04-01T12:44:28.923Z,16.67
2023-04-01T12:47:25.352Z,16.58
2023-04-01T12:50:07.911Z,16.53
2023-04-01T12:52:57.107Z,16.47
2023-04-01T12:55:42.475Z,16.47
2023-04-01T12:58:55.637Z,16.45
2023-04-01T13:02:15.900Z,16.49
2023-04-01T13:05:16.497Z,16.54
2023-04-01T13:08:23.466Z,16.58
2023-04-01T13:11:41.079Z,16.61
2023-04-01T13:15:19.109Z,16.65
2023-04-01T13:18:32.002Z,16.68
2023-04-01T13:21:22.975Z,16.73
2023-04-01T13:24:48.330Z,16.70
2023-04-01T13:27:41.849Z,16.69
2023-04-01T13:30:24.317Z,16.61
2023-04-01T13:33:12.538Z,16.62
2023-04-01T13:36:35.602Z,16.85
2023-04-01T13:39:38.346Z,16.94
2023-04-01T13:43:03.905Z,17.04
2023-04-01T13:45:59.128Z,17.21
2023-04-01T13:48:44.108Z,17.26
2023-04-01T13:51:55.893Z,17.36
2023-04-01T13:55:01.967Z,17.60
2023-04-01T13:57:49.803Z,17.71
2023-04-01T14:00:43.842Z,17.76
2023-04-01T14:03:40.448Z,18.01
2023-04-01T14:06:34.749Z,18.47
2023-04-01T14:09:20.255Z,18.62
2023-04-01T14:12:25.115Z,18.66
2023-04-01T14:15:22.413Z,18.84
2023-04-01T14:18:00.921Z,19.15
2023-04-01T14:21:18.464Z,19.19
2023-04-01T14:24:21.288Z,19.14
2023-04-01T14:27:21.693Z,19.11
2023-04-01T14:30:09.127Z,18.91
2023-04-01T14:33:44.340Z,18.42
2023-04-01T14:36:46.986Z,18.13
2023-04-01T14:40:14.359Z,17.82
2023-04-01T14:43:53.926Z,17.59
2023-04-01T14:46:45.955Z,17.43
2023-04-01T14:49:41.001Z,17.45
2023-04-01T14:52:17.435Z,17.43
2023-04-01T14:55:40.356Z,17.43
2023-04-01T14:58:34.843Z,17.42
2023-04-01T15:01:43.590Z,17.49
2023-04-01T15:04:53.668Z,17.38
2023-04-01T15:07:39.928Z,17.26
2023-04-01T15:11:23.863Z,17.12
2023-04-01T15:14:28.068Z,16.96
2023-04-01T15:17:11.028Z,16.85
2023-04-01T15:20:11.361Z,16.70
2023-04-01T15:23:41.190Z,16.59
2023-04-01T15:27:13.862Z,16.46
2023-04-01T15:30:08.474Z,16.41
2023-04-01T15:33:25.604Z,16.41
2023-04-01T15:36:48.870Z,16.44
2023-04-01T15:40:20.243Z,16.44
2023-04-01T15:43:54.513Z,16.44
2023-04-01T15:46:49.021Z,16.44
2023-04-01T15:50:16.261Z,16.37
2023-04-01T15:53:25.328Z,16.31
2023-04-01T15:56:45.837Z,16.27
2023-04-01T16:00:08.685Z,16.15
2023-04-01T16:02:54.519Z,16.00
2023-04-01T16:06:11.601Z,15.89
2023-04-01T16:09:14.312Z,15.76
2023-04-01T16:12:24.522Z,15.59
2023-04-01T16:15:25.574Z,15.44
2023-04-01T16:18:33.530Z,15.33
2023-04-01T16:21:45.936Z,15.17
2023-04-01T16:24:46.666Z,15.05
2023-04-01T16:27:19.536Z,14.95
2023-04-01T16:29:49.558Z,14.86
2023-04-01T16:32:41.278Z,14.79
2023-04-01T16:35:59.790Z,14.72
2023-04-01T16:38:57.164Z,14.64
2023-04-01T16:41:32.880Z,14.53
2023-04-01T16:44:12.271Z,14.46
2023-04-01T16:47:13.581Z,14.37
2023-04-01T16:49:55.054Z,14.31
2023-04-01T16:53:06.852Z,14.22
2023-04-01T16:56:06.056Z,14.11
2023-04-01T16:59:03.332Z,13.97
2023-04-01T17:02:14.735Z,13.84
2023-04-01T17:04:53.427Z,13.69
2023-04-01T17:07:47.816Z,13.57
2023-04-01T17:10:45.902Z,13.43
2023-04-01T17:13:36.690Z,13.29
2023-04-01T17:16:27.562Z,13.16
2023-04-01T17:19:25.048Z,13.05
2023-04-01T17:22:40.748Z,12.91
2023-04-01T17:25:52.832Z,12.78
2023-04-01T17:28:51.279Z,13.76
2023-04-01T17:31:41.633Z,14.11
2023-04-01T17:34:27.234Z,14.01
2023-04-01T17:37:37.192Z,13.75
2023-04-01T17:40:52.500Z,13.46
2023-04-01T17:44:04.775Z,13.20
2023-04-01T17:47:23.358Z,12.94
2023-04-01T17:50:54.879Z,12.68
2023-04-01T17:54:06.955Z,12.56
2023-04-01T17:57:00.962Z,12.44
2023-04-01T18:00:07.417Z,12.24
2023-04-01T18:03:15.121Z,12.06
2023-04-01T18:06:26.559Z,13.01
2023-04-01T18:09:55.458Z,13.51
2023-04-01T18:13:16.997Z,13.25
2023-04-01T18:16:54.944Z,12.88
2023-04-01T18:19:49.095Z,12.46
2023-04-01T18:23:03.668Z,12.14
2023-04-01T18:25:49.869Z,11.92
2023-04-01T18:29:13.278Z,11.72
2023-04-01T18:31:48.079Z,11.59
2023-04-01T18:34:55.257Z,12.59
2023-04-01T18:37:52.552Z,13.10
2023-04-01T18:40:53.399Z,13.00
2023-04-01T18:44:30.756Z,12.71
2023-04-01T18:47:18.335Z,12.37
2023-04-01T18:50:01.467Z,12.07
2023-04-01T18:52:54.062Z,11.83
2023-04-01T18:55:44.192Z,11.59
2023-04-01T18:59:12.343Z,11.37
2023-04-01T19:02:24.049Z,12.22
2023-04-01T19:05:24.869Z,12.62
2023-04-01T19:08:01.122Z,12.42
2023-04-01T19:10:34.965Z,12.16
2023-04-01T19:13:26.476Z,11.88
2023-04-01T19:16:39.284Z,11.63
2023-04-01T19:19:47.239Z,11.35
2023-04-01T19:22:47.944Z,11.19
2023-04-01T19:25:53.203Z,12.24
2023-04-01T19:29:11.807Z,12.79
2023-04-01T19:32:22.637Z,12.59
2023-04-01T19:35:14.651Z,12.19
2023-04-01T19:38:03.065Z,11.92
2023-04-01T19:40:36.077Z,11.70
2023-04-01T19:43:22.244Z,11.53
2023-04-01T19:47:15.354Z,11.37
2023-04-01T19:50:18.195Z,12.55
2023-04-01T19:53:02.013Z,12.94
2023-04-01T19:56:03.162Z,12.78
2023-04-01T19:59:39.333Z,12.50
2023-04-01T20:03:02.539Z,12.05
2023-04-01T20:06:56.739Z,11.72
2023-04-01T20:10:27.113Z,11.56
2023-04-01T20:13:47.658Z,12.68
2023-04-01T20:16:24.321Z,12.92
2023-04-01T20:20:15.525Z,12.65
2023-04-01T20:23:46.219Z,12.19
2023-04-01T20:27:10.535Z,11.83
2023-04-01T20:30:39.301Z,11.56
2023-04-01T20:34:06.763Z,11.31
2023-04-01T20:37:33.532Z,11.22
2023-04-01T20:40:53.394Z,12.43
2023-04-01T20:44:51.164Z,12.74
2023-04-01T20:48:43.738Z,12.41
2023-04-01T20:51:55.411Z,12.00
2023-04-01T20:56:06.690Z,11.61
2023-04-01T20:59:25.029Z,11.34
2023-04-01T21:02:57.720Z,11.19
2023-04-01T21:06:36.003Z,12.34
2023-04-01T21:09:44.525Z,12.69
2023-04-01T21:13:32.217Z,12.44
2023-04-01T21:17:01.732Z,11.99
2023-04-01T21:20:37.198Z,11.70
2023-04-01T21:23:59.258Z,11.15
2023-04-01T21:27:48.173Z,10.96
2023-04-01T21:31:44.395Z,12.20
2023-04-01T21:35:30.927Z,12.40
2023-04-01T21:39:06.357Z,11.96
2023-04-01T21:42:49.568Z,11.51
2023-04-01T21:46:57.939Z,11.05
2023-04-01T21:51:10.135Z,10.99
2023-04-01T21:54:57.959Z,12.18
2023-04-01T21:58:58.399Z,12.13
2023-04-01T22:02:40.673Z,11.69
2023-04-01T22:06:25.473Z,11.25
2023-04-01T22:10:03.024Z,10.79
2023-04-01T22:13:37.989Z,10.56
2023-04-01T22:17:09.090Z,11.77
2023-04-01T22:21:31.836Z,12.02
2023-04-01T22:25:07.397Z,11.58
2023-04-01T22:28:56.942Z,11.18
2023-04-01T22:33:14.094Z,10.72
2023-04-01T22:36:16.892Z,10.57
2023-04-01T22:39:22.742Z,11.58
2023-04-01T22:43:14.834Z,11.96
2023-04-01T22:47:32.031Z,11.60
2023-04-01T22:51:19.142Z,11.09
2023-04-01T22:55:39.945Z,10.62
2023-04-01T22:59:44.446Z,10.64
2023-04-01T23:03:48.597Z,11.61
2023-04-01T23:08:01.391Z,11.41
2023-04-01T23:12:09.599Z,10.89
2023-04-01T23:16:17.897Z,10.46
2023-04-01T23:20:11.968Z,10.50
2023-04-01T23:24:34.552Z,11.70
2023-04-01T23:28:32.495Z,11.65
2023-04-01T23:32:40.637Z,11.23
2023-04-01T23:36:51.752Z,10.82
2023-04-01T23:41:00.320Z,10.75
2023-04-01T23:45:03.861Z,11.77
2023-04-01T23:49:14.940Z,11.53
2023-04-01T23:53:31.111Z,11.06
2023-04-01T23:57:36.457Z,10.63
